Portland, Oregon
Traffic Map
Current Weather Conditions
Portland, Oregon
Overcast Light Rain
Overcast

Feels Like: 4°
Wind Chill: Ceiling: 1200
Heat Index: Visibility: 10mi
Dew Point: Wind: 6mph
Humidity: 89% Direction: 220° (SW)
Pressure: 30.05in Gusts: 0mph
Raw Report DataKPDX 111018Z 22005KT 10SM -RA BKN012 OVC019 06/04 A3005 RMK AO2 P0003 T00610044 $
Traffic Incident Summary
Active as of:
Severity:
Category:
InformationThere was an issue retrieving the traffic information for this location. Please try a different location or try again shortly.
Advertisements
Track Severe Weather on mobile